sensor_id;sensor_type;location;lat;lon;timestamp;temperature;humidity
3752;DHT22;50827;47.014;7.652;2023-02-21T00:02:17;5.60;99.90
3752;DHT22;50827;47.014;7.652;2023-02-21T00:05:02;5.60;99.90
3752;DHT22;50827;47.014;7.652;2023-02-21T00:07:48;5.50;99.90
3752;DHT22;50827;47.014;7.652;2023-02-21T00:10:33;5.50;99.90
3752;DHT22;50827;47.014;7.652;2023-02-21T00:13:19;5.50;99.90
3752;DHT22;50827;47.014;7.652;2023-02-21T00:16:04;5.40;99.90
3752;DHT22;50827;47.014;7.652;2023-02-21T00:18:50;5.30;99.90
3752;DHT22;50827;47.014;7.652;2023-02-21T00:21:35;5.30;99.90
3752;DHT22;50827;47.014;7.652;2023-02-21T00:24:20;5.30;99.90
3752;DHT22;50827;47.014;7.652;2023-02-21T00:27:06;5.30;99.90
3752;DHT22;50827;47.014;7.652;2023-02-21T00:29:51;5.30;99.90
3752;DHT22;50827;47.014;7.652;2023-02-21T00:32:37;5.20;99.90
3752;DHT22;50827;47.014;7.652;2023-02-21T00:35:22;5.20;99.90
3752;DHT22;50827;47.014;7.652;2023-02-21T00:38:08;5.30;99.90
3752;DHT22;50827;47.014;7.652;2023-02-21T00:40:54;5.30;99.90
3752;DHT22;50827;47.014;7.652;2023-02-21T00:43:40;5.30;99.90
3752;DHT22;50827;47.014;7.652;2023-02-21T00:46:25;5.30;99.90
3752;DHT22;50827;47.014;7.652;2023-02-21T00:49:11;5.40;99.90
3752;DHT22;50827;47.014;7.652;2023-02-21T00:51:56;5.40;99.90
3752;DHT22;50827;47.014;7.652;2023-02-21T00:54:41;5.30;99.90
3752;DHT22;50827;47.014;7.652;2023-02-21T00:57:27;5.30;99.90
3752;DHT22;50827;47.014;7.652;2023-02-21T01:00:21;5.30;99.90
3752;DHT22;50827;47.014;7.652;2023-02-21T01:03:07;5.20;99.90
3752;DHT22;50827;47.014;7.652;2023-02-21T01:05:53;5.20;99.90
3752;DHT22;50827;47.014;7.652;2023-02-21T01:08:43;5.10;99.90
3752;DHT22;50827;47.014;7.652;2023-02-21T01:11:29;5.10;99.90
3752;DHT22;50827;47.014;7.652;2023-02-21T01:14:14;5.00;99.90
3752;DHT22;50827;47.014;7.652;2023-02-21T01:17:00;5.00;99.90
3752;DHT22;50827;47.014;7.652;2023-02-21T01:19:46;5.00;99.90
3752;DHT22;50827;47.014;7.652;2023-02-21T01:22:31;5.00;99.90
3752;DHT22;50827;47.014;7.652;2023-02-21T01:25:16;5.00;99.90
3752;DHT22;50827;47.014;7.652;2023-02-21T01:28:02;4.90;99.90
3752;DHT22;50827;47.014;7.652;2023-02-21T01:30:47;4.90;99.90
3752;DHT22;50827;47.014;7.652;2023-02-21T01:33:40;4.90;99.90
3752;DHT22;50827;47.014;7.652;2023-02-21T01:36:26;4.80;99.90
3752;DHT22;50827;47.014;7.652;2023-02-21T01:39:12;4.80;99.90
3752;DHT22;50827;47.014;7.652;2023-02-21T01:41:57;4.80;99.90
3752;DHT22;50827;47.014;7.652;2023-02-21T01:44:45;4.80;99.90
3752;DHT22;50827;47.014;7.652;2023-02-21T01:47:31;4.80;99.90
3752;DHT22;50827;47.014;7.652;2023-02-21T01:50:28;4.80;99.90
3752;DHT22;50827;47.014;7.652;2023-02-21T01:53:21;4.70;99.90
3752;DHT22;50827;47.014;7.652;2023-02-21T01:56:09;4.70;99.90
3752;DHT22;50827;47.014;7.652;2023-02-21T01:58:58;4.70;99.90
3752;DHT22;50827;47.014;7.652;2023-02-21T02:02:26;4.70;99.90
3752;DHT22;50827;47.014;7.652;2023-02-21T02:05:13;4.70;99.90
3752;DHT22;50827;47.014;7.652;2023-02-21T02:07:58;4.60;99.90
3752;DHT22;50827;47.014;7.652;2023-02-21T02:10:44;4.60;99.90
3752;DHT22;50827;47.014;7.652;2023-02-21T02:22:04;4.60;99.90
3752;DHT22;50827;47.014;7.652;2023-02-21T02:24:59;4.60;99.90
3752;DHT22;50827;47.014;7.652;2023-02-21T02:39:14;4.50;99.90
3752;DHT22;50827;47.014;7.652;2023-02-21T02:41:57;4.50;99.90
3752;DHT22;50827;47.014;7.652;2023-02-21T02:44:39;4.40;99.90
3752;DHT22;50827;47.014;7.652;2023-02-21T02:47:13;4.40;99.90
3752;DHT22;50827;47.014;7.652;2023-02-21T02:49:42;4.40;99.90
3752;DHT22;50827;47.014;7.652;2023-02-21T02:52:10;4.40;99.90
3752;DHT22;50827;47.014;7.652;2023-02-21T02:54:37;4.40;99.90
3752;DHT22;50827;47.014;7.652;2023-02-21T02:57:06;4.40;99.90
3752;DHT22;50827;47.014;7.652;2023-02-21T02:59:37;4.30;99.90
3752;DHT22;50827;47.014;7.652;2023-02-21T03:08:13;4.30;99.90
3752;DHT22;50827;47.014;7.652;2023-02-21T03:10:57;4.30;99.90
3752;DHT22;50827;47.014;7.652;2023-02-21T03:19:00;4.20;99.90
3752;DHT22;50827;47.014;7.652;2023-02-21T03:21:38;4.20;99.90
3752;DHT22;50827;47.014;7.652;2023-02-21T03:24:07;4.20;99.90
3752;DHT22;50827;47.014;7.652;2023-02-21T03:26:37;4.20;99.90
3752;DHT22;50827;47.014;7.652;2023-02-21T03:29:06;4.20;99.90
3752;DHT22;50827;47.014;7.652;2023-02-21T03:31:39;4.20;99.90
3752;DHT22;50827;47.014;7.652;2023-02-21T03:34:07;4.20;99.90
3752;DHT22;50827;47.014;7.652;2023-02-21T03:36:34;4.30;99.90
3752;DHT22;50827;47.014;7.652;2023-02-21T03:39:02;4.20;99.90
3752;DHT22;50827;47.014;7.652;2023-02-21T03:41:29;4.20;99.90
3752;DHT22;50827;47.014;7.652;2023-02-21T03:43:56;4.20;99.90
3752;DHT22;50827;47.014;7.652;2023-02-21T03:46:23;4.10;99.90
3752;DHT22;50827;47.014;7.652;2023-02-21T03:48:49;4.20;99.90
3752;DHT22;50827;47.014;7.652;2023-02-21T03:51:16;4.20;99.90
3752;DHT22;50827;47.014;7.652;2023-02-21T03:53:43;4.20;99.90
3752;DHT22;50827;47.014;7.652;2023-02-21T03:56:09;4.20;99.90
3752;DHT22;50827;47.014;7.652;2023-02-21T03:58:36;4.20;99.90
3752;DHT22;50827;47.014;7.652;2023-02-21T04:01:04;4.20;99.90
3752;DHT22;50827;47.014;7.652;2023-02-21T04:03:30;4.20;99.90
3752;DHT22;50827;47.014;7.652;2023-02-21T04:05:57;4.20;99.90
3752;DHT22;50827;47.014;7.652;2023-02-21T04:08:24;4.30;99.90
3752;DHT22;50827;47.014;7.652;2023-02-21T04:10:51;4.30;99.90
3752;DHT22;50827;47.014;7.652;2023-02-21T04:13:18;4.20;99.90
3752;DHT22;50827;47.014;7.652;2023-02-21T04:15:45;4.30;99.90
3752;DHT22;50827;47.014;7.652;2023-02-21T04:18:12;4.20;99.90
3752;DHT22;50827;47.014;7.652;2023-02-21T04:20:39;4.20;99.90
3752;DHT22;50827;47.014;7.652;2023-02-21T04:23:05;4.10;99.90
3752;DHT22;50827;47.014;7.652;2023-02-21T04:25:32;4.10;99.90
3752;DHT22;50827;47.014;7.652;2023-02-21T04:27:59;4.10;99.90
3752;DHT22;50827;47.014;7.652;2023-02-21T04:30:25;4.10;99.90
3752;DHT22;50827;47.014;7.652;2023-02-21T04:32:52;4.00;99.90
3752;DHT22;50827;47.014;7.652;2023-02-21T04:35:19;4.10;99.90
3752;DHT22;50827;47.014;7.652;2023-02-21T04:37:46;4.10;99.90
3752;DHT22;50827;47.014;7.652;2023-02-21T04:40:12;4.10;99.90
3752;DHT22;50827;47.014;7.652;2023-02-21T04:42:39;4.10;99.90
3752;DHT22;50827;47.014;7.652;2023-02-21T04:45:06;4.00;99.90
3752;DHT22;50827;47.014;7.652;2023-02-21T04:47:33;4.10;99.90
3752;DHT22;50827;47.014;7.652;2023-02-21T04:50:00;4.00;99.90
3752;DHT22;50827;47.014;7.652;2023-02-21T04:52:26;4.00;99.90
3752;DHT22;50827;47.014;7.652;2023-02-21T04:54:53;4.10;99.90
3752;DHT22;50827;47.014;7.652;2023-02-21T04:57:20;4.10;99.90
3752;DHT22;50827;47.014;7.652;2023-02-21T04:59:47;4.10;99.90
3752;DHT22;50827;47.014;7.652;2023-02-21T05:02:14;4.20;99.90
3752;DHT22;50827;47.014;7.652;2023-02-21T05:04:41;4.10;99.90
3752;DHT22;50827;47.014;7.652;2023-02-21T05:07:08;4.10;99.90
3752;DHT22;50827;47.014;7.652;2023-02-21T05:09:35;4.00;99.90
3752;DHT22;50827;47.014;7.652;2023-02-21T05:12:01;3.90;99.90
3752;DHT22;50827;47.014;7.652;2023-02-21T05:14:28;3.90;99.90
3752;DHT22;50827;47.014;7.652;2023-02-21T05:16:55;3.90;99.90
3752;DHT22;50827;47.014;7.652;2023-02-21T05:19:23;3.90;99.90
3752;DHT22;50827;47.014;7.652;2023-02-21T05:21:57;3.90;99.90
3752;DHT22;50827;47.014;7.652;2023-02-21T05:24:26;3.90;99.90
3752;DHT22;50827;47.014;7.652;2023-02-21T05:26:53;4.00;99.90
3752;DHT22;50827;47.014;7.652;2023-02-21T05:29:20;4.00;99.90
3752;DHT22;50827;47.014;7.652;2023-02-21T05:31:46;3.90;99.90
3752;DHT22;50827;47.014;7.652;2023-02-21T05:34:14;3.90;99.90
3752;DHT22;50827;47.014;7.652;2023-02-21T05:36:42;3.90;99.90
3752;DHT22;50827;47.014;7.652;2023-02-21T05:39:09;3.90;99.90
3752;DHT22;50827;47.014;7.652;2023-02-21T05:41:36;3.80;99.90
3752;DHT22;50827;47.014;7.652;2023-02-21T05:44:03;3.90;99.90
3752;DHT22;50827;47.014;7.652;2023-02-21T05:46:33;3.90;99.90
3752;DHT22;50827;47.014;7.652;2023-02-21T05:49:01;3.90;99.90
3752;DHT22;50827;47.014;7.652;2023-02-21T05:51:34;3.90;99.90
3752;DHT22;50827;47.014;7.652;2023-02-21T05:54:04;4.00;99.90
3752;DHT22;50827;47.014;7.652;2023-02-21T05:56:40;4.00;99.90
3752;DHT22;50827;47.014;7.652;2023-02-21T05:59:07;4.00;99.90
3752;DHT22;50827;47.014;7.652;2023-02-21T06:01:34;4.00;99.90
3752;DHT22;50827;47.014;7.652;2023-02-21T06:04:01;4.20;99.90
3752;DHT22;50827;47.014;7.652;2023-02-21T06:06:28;4.00;99.90
3752;DHT22;50827;47.014;7.652;2023-02-21T06:08:54;4.00;99.90
3752;DHT22;50827;47.014;7.652;2023-02-21T06:11:27;4.00;99.90
3752;DHT22;50827;47.014;7.652;2023-02-21T06:13:55;3.90;99.90
3752;DHT22;50827;47.014;7.652;2023-02-21T06:16:23;3.90;99.90
3752;DHT22;50827;47.014;7.652;2023-02-21T06:18:55;3.90;99.90
3752;DHT22;50827;47.014;7.652;2023-02-21T06:21:22;3.90;99.90
3752;DHT22;50827;47.014;7.652;2023-02-21T06:23:49;3.90;99.90
3752;DHT22;50827;47.014;7.652;2023-02-21T06:26:17;3.90;99.90
3752;DHT22;50827;47.014;7.652;2023-02-21T06:28:44;3.90;99.90
3752;DHT22;50827;47.014;7.652;2023-02-21T06:31:10;3.90;99.90
3752;DHT22;50827;47.014;7.652;2023-02-21T06:33:37;3.90;99.90
3752;DHT22;50827;47.014;7.652;2023-02-21T06:36:06;3.90;99.90
3752;DHT22;50827;47.014;7.652;2023-02-21T06:38:33;3.90;99.90
3752;DHT22;50827;47.014;7.652;2023-02-21T06:41:04;3.90;99.90
3752;DHT22;50827;47.014;7.652;2023-02-21T06:43:32;3.90;99.90
3752;DHT22;50827;47.014;7.652;2023-02-21T06:45:58;3.80;99.90
3752;DHT22;50827;47.014;7.652;2023-02-21T06:48:25;3.80;99.90
3752;DHT22;50827;47.014;7.652;2023-02-21T06:50:52;3.80;99.90
3752;DHT22;50827;47.014;7.652;2023-02-21T06:53:18;3.80;99.90
3752;DHT22;50827;47.014;7.652;2023-02-21T06:55:45;3.90;99.90
3752;DHT22;50827;47.014;7.652;2023-02-21T06:58:12;3.80;99.90
3752;DHT22;50827;47.014;7.652;2023-02-21T07:00:38;3.80;99.90
3752;DHT22;50827;47.014;7.652;2023-02-21T07:03:05;3.80;99.90
3752;DHT22;50827;47.014;7.652;2023-02-21T07:05:32;3.80;99.90
3752;DHT22;50827;47.014;7.652;2023-02-21T07:08:01;3.80;99.90
3752;DHT22;50827;47.014;7.652;2023-02-21T07:10:28;3.90;99.90
3752;DHT22;50827;47.014;7.652;2023-02-21T07:12:55;3.90;99.90
3752;DHT22;50827;47.014;7.652;2023-02-21T07:15:22;3.80;99.90
3752;DHT22;50827;47.014;7.652;2023-02-21T07:17:49;3.80;99.90
3752;DHT22;50827;47.014;7.652;2023-02-21T07:20:15;3.90;99.90
3752;DHT22;50827;47.014;7.652;2023-02-21T07:22:42;3.90;99.90
3752;DHT22;50827;47.014;7.652;2023-02-21T07:25:14;3.90;99.90
3752;DHT22;50827;47.014;7.652;2023-02-21T07:27:41;3.90;99.90
3752;DHT22;50827;47.014;7.652;2023-02-21T07:30:09;3.80;99.90
3752;DHT22;50827;47.014;7.652;2023-02-21T07:32:36;3.90;99.90
3752;DHT22;50827;47.014;7.652;2023-02-21T07:35:03;4.00;99.90
3752;DHT22;50827;47.014;7.652;2023-02-21T07:37:30;4.10;99.90
3752;DHT22;50827;47.014;7.652;2023-02-21T07:39:57;4.10;99.90
3752;DHT22;50827;47.014;7.652;2023-02-21T07:42:24;4.10;99.90
3752;DHT22;50827;47.014;7.652;2023-02-21T07:44:55;4.20;99.90
3752;DHT22;50827;47.014;7.652;2023-02-21T07:47:24;4.20;99.90
3752;DHT22;50827;47.014;7.652;2023-02-21T07:49:51;4.30;99.90
3752;DHT22;50827;47.014;7.652;2023-02-21T07:52:22;4.30;99.90
3752;DHT22;50827;47.014;7.652;2023-02-21T07:54:49;4.40;99.90
3752;DHT22;50827;47.014;7.652;2023-02-21T07:57:16;4.40;99.90
3752;DHT22;50827;47.014;7.652;2023-02-21T07:59:43;4.50;99.90
3752;DHT22;50827;47.014;7.652;2023-02-21T08:02:11;4.50;99.90
3752;DHT22;50827;47.014;7.652;2023-02-21T08:04:38;4.50;99.90
3752;DHT22;50827;47.014;7.652;2023-02-21T08:07:05;4.60;99.90
3752;DHT22;50827;47.014;7.652;2023-02-21T08:09:33;4.60;99.90
3752;DHT22;50827;47.014;7.652;2023-02-21T08:12:01;4.80;99.90
3752;DHT22;50827;47.014;7.652;2023-02-21T08:14:28;4.80;99.90
3752;DHT22;50827;47.014;7.652;2023-02-21T08:16:55;4.90;99.90
3752;DHT22;50827;47.014;7.652;2023-02-21T08:19:21;5.00;99.90
3752;DHT22;50827;47.014;7.652;2023-02-21T08:21:49;5.00;99.90
3752;DHT22;50827;47.014;7.652;2023-02-21T08:24:16;5.10;99.90
3752;DHT22;50827;47.014;7.652;2023-02-21T08:26:44;5.20;99.90
3752;DHT22;50827;47.014;7.652;2023-02-21T08:29:12;5.20;99.90
3752;DHT22;50827;47.014;7.652;2023-02-21T08:31:39;5.20;99.90
3752;DHT22;50827;47.014;7.652;2023-02-21T08:34:07;5.30;99.90
3752;DHT22;50827;47.014;7.652;2023-02-21T08:36:37;5.40;99.90
3752;DHT22;50827;47.014;7.652;2023-02-21T08:39:05;5.40;99.90
3752;DHT22;50827;47.014;7.652;2023-02-21T08:41:40;5.50;99.90
3752;DHT22;50827;47.014;7.652;2023-02-21T08:44:08;5.60;99.90
3752;DHT22;50827;47.014;7.652;2023-02-21T08:46:35;5.60;99.90
3752;DHT22;50827;47.014;7.652;2023-02-21T08:49:03;5.70;99.90
3752;DHT22;50827;47.014;7.652;2023-02-21T08:51:32;5.80;99.90
3752;DHT22;50827;47.014;7.652;2023-02-21T08:54:00;5.80;99.90
3752;DHT22;50827;47.014;7.652;2023-02-21T08:56:27;5.90;99.90
3752;DHT22;50827;47.014;7.652;2023-02-21T08:58:54;6.00;99.90
3752;DHT22;50827;47.014;7.652;2023-02-21T09:01:21;6.00;99.90
3752;DHT22;50827;47.014;7.652;2023-02-21T09:03:49;6.10;99.90
3752;DHT22;50827;47.014;7.652;2023-02-21T09:06:16;6.10;99.90
3752;DHT22;50827;47.014;7.652;2023-02-21T09:08:43;6.20;99.90
3752;DHT22;50827;47.014;7.652;2023-02-21T09:11:10;6.30;99.90
3752;DHT22;50827;47.014;7.652;2023-02-21T09:13:36;6.40;99.90
3752;DHT22;50827;47.014;7.652;2023-02-21T09:16:03;6.50;99.90
3752;DHT22;50827;47.014;7.652;2023-02-21T09:18:31;6.50;99.90
3752;DHT22;50827;47.014;7.652;2023-02-21T09:20:58;6.60;99.90
3752;DHT22;50827;47.014;7.652;2023-02-21T09:23:28;6.60;99.90
3752;DHT22;50827;47.014;7.652;2023-02-21T09:25:55;6.70;99.90
3752;DHT22;50827;47.014;7.652;2023-02-21T09:28:23;6.80;99.90
3752;DHT22;50827;47.014;7.652;2023-02-21T09:30:50;6.90;99.90
3752;DHT22;50827;47.014;7.652;2023-02-21T09:33:17;7.00;99.90
3752;DHT22;50827;47.014;7.652;2023-02-21T09:35:44;7.10;99.90
3752;DHT22;50827;47.014;7.652;2023-02-21T09:38:10;7.10;99.90
3752;DHT22;50827;47.014;7.652;2023-02-21T09:40:47;7.10;99.90
3752;DHT22;50827;47.014;7.652;2023-02-21T09:45:53;7.30;99.90
3752;DHT22;50827;47.014;7.652;2023-02-21T09:48:23;7.40;99.90
3752;DHT22;50827;47.014;7.652;2023-02-21T09:50:53;7.40;99.90
3752;DHT22;50827;47.014;7.652;2023-02-21T09:53:34;7.40;99.90
3752;DHT22;50827;47.014;7.652;2023-02-21T09:56:10;7.50;99.90
3752;DHT22;50827;47.014;7.652;2023-02-21T09:58:41;7.60;99.90
3752;DHT22;50827;47.014;7.652;2023-02-21T10:01:45;7.60;99.90
3752;DHT22;50827;47.014;7.652;2023-02-21T10:04:19;7.80;99.90
3752;DHT22;50827;47.014;7.652;2023-02-21T10:07:05;7.80;99.90
3752;DHT22;50827;47.014;7.652;2023-02-21T10:09:43;7.90;99.90
3752;DHT22;50827;47.014;7.652;2023-02-21T10:12:35;8.00;99.90
3752;DHT22;50827;47.014;7.652;2023-02-21T10:15:42;8.00;99.90
3752;DHT22;50827;47.014;7.652;2023-02-21T10:18:39;8.10;99.90
3752;DHT22;50827;47.014;7.652;2023-02-21T10:21:15;8.20;99.90
3752;DHT22;50827;47.014;7.652;2023-02-21T10:23:45;8.30;99.90
3752;DHT22;50827;47.014;7.652;2023-02-21T10:26:22;8.30;99.90
3752;DHT22;50827;47.014;7.652;2023-02-21T10:28:51;8.40;99.90
3752;DHT22;50827;47.014;7.652;2023-02-21T10:31:33;8.60;99.90
3752;DHT22;50827;47.014;7.652;2023-02-21T10:34:05;8.70;99.90
3752;DHT22;50827;47.014;7.652;2023-02-21T10:36:34;8.70;99.90
3752;DHT22;50827;47.014;7.652;2023-02-21T10:39:28;8.80;99.90
3752;DHT22;50827;47.014;7.652;2023-02-21T10:41:56;8.90;99.90
3752;DHT22;50827;47.014;7.652;2023-02-21T10:44:33;9.00;99.90
3752;DHT22;50827;47.014;7.652;2023-02-21T10:47:13;9.10;99.90
3752;DHT22;50827;47.014;7.652;2023-02-21T10:49:47;9.10;99.90
3752;DHT22;50827;47.014;7.652;2023-02-21T10:52:17;9.20;99.90
3752;DHT22;50827;47.014;7.652;2023-02-21T10:55:22;9.40;99.90
3752;DHT22;50827;47.014;7.652;2023-02-21T10:58:09;9.40;99.90
3752;DHT22;50827;47.014;7.652;2023-02-21T11:00:39;9.50;99.90
3752;DHT22;50827;47.014;7.652;2023-02-21T11:05:51;9.70;99.90
3752;DHT22;50827;47.014;7.652;2023-02-21T11:08:38;9.80;99.90
3752;DHT22;50827;47.014;7.652;2023-02-21T11:11:05;9.90;99.90
3752;DHT22;50827;47.014;7.652;2023-02-21T11:13:33;10.00;99.90
3752;DHT22;50827;47.014;7.652;2023-02-21T11:16:18;10.00;99.90
3752;DHT22;50827;47.014;7.652;2023-02-21T11:18:45;10.10;99.90
3752;DHT22;50827;47.014;7.652;2023-02-21T11:21:14;10.20;99.90
3752;DHT22;50827;47.014;7.652;2023-02-21T11:23:52;10.30;99.90
3752;DHT22;50827;47.014;7.652;2023-02-21T11:26:23;10.30;99.90
3752;DHT22;50827;47.014;7.652;2023-02-21T11:28:51;10.30;99.90
3752;DHT22;50827;47.014;7.652;2023-02-21T11:31:30;10.40;99.90
3752;DHT22;50827;47.014;7.652;2023-02-21T11:34:00;10.50;99.90
3752;DHT22;50827;47.014;7.652;2023-02-21T11:36:37;10.50;99.90
3752;DHT22;50827;47.014;7.652;2023-02-21T11:39:24;10.50;99.90
3752;DHT22;50827;47.014;7.652;2023-02-21T11:42:01;10.60;99.90
3752;DHT22;50827;47.014;7.652;2023-02-21T11:49:57;10.80;99.90
3752;DHT22;50827;47.014;7.652;2023-02-21T11:52:30;10.80;99.90
3752;DHT22;50827;47.014;7.652;2023-02-21T11:54:59;10.90;99.90
3752;DHT22;50827;47.014;7.652;2023-02-21T11:57:57;11.00;99.90
3752;DHT22;50827;47.014;7.652;2023-02-21T12:00:30;11.00;99.90
3752;DHT22;50827;47.014;7.652;2023-02-21T12:03:17;11.10;99.90
3752;DHT22;50827;47.014;7.652;2023-02-21T12:09:06;11.20;99.90
3752;DHT22;50827;47.014;7.652;2023-02-21T12:15:12;11.20;99.90
3752;DHT22;50827;47.014;7.652;2023-02-21T12:17:50;11.30;99.90
3752;DHT22;50827;47.014;7.652;2023-02-21T12:37:45;11.70;99.90
3752;DHT22;50827;47.014;7.652;2023-02-21T12:40:32;11.80;99.90
3752;DHT22;50827;47.014;7.652;2023-02-21T12:43:37;11.90;99.90
3752;DHT22;50827;47.014;7.652;2023-02-21T12:48:57;12.00;99.90
3752;DHT22;50827;47.014;7.652;2023-02-21T12:51:29;12.00;99.90
3752;DHT22;50827;47.014;7.652;2023-02-21T12:54:05;12.10;99.90
3752;DHT22;50827;47.014;7.652;2023-02-21T12:56:55;12.10;99.90
3752;DHT22;50827;47.014;7.652;2023-02-21T12:59:32;12.20;99.90
3752;DHT22;50827;47.014;7.652;2023-02-21T13:04:56;12.30;99.90
3752;DHT22;50827;47.014;7.652;2023-02-21T13:07:34;12.30;99.90
3752;DHT22;50827;47.014;7.652;2023-02-21T13:10:11;12.40;99.90
3752;DHT22;50827;47.014;7.652;2023-02-21T13:15:34;12.50;99.90
3752;DHT22;50827;47.014;7.652;2023-02-21T13:18:14;12.50;99.90
3752;DHT22;50827;47.014;7.652;2023-02-21T13:20:51;12.60;99.90
3752;DHT22;50827;47.014;7.652;2023-02-21T13:23:39;12.60;99.90
3752;DHT22;50827;47.014;7.652;2023-02-21T13:26:19;12.70;99.90
3752;DHT22;50827;47.014;7.652;2023-02-21T13:28:53;12.70;99.90
3752;DHT22;50827;47.014;7.652;2023-02-21T13:31:41;12.70;99.90
3752;DHT22;50827;47.014;7.652;2023-02-21T13:34:09;12.80;99.90
3752;DHT22;50827;47.014;7.652;2023-02-21T13:36:44;12.90;99.90
3752;DHT22;50827;47.014;7.652;2023-02-21T13:41:51;12.90;99.90
3752;DHT22;50827;47.014;7.652;2023-02-21T13:44:25;13.00;99.90
3752;DHT22;50827;47.014;7.652;2023-02-21T13:49:48;13.10;99.90
3752;DHT22;50827;47.014;7.652;2023-02-21T13:55:08;13.20;99.90
3752;DHT22;50827;47.014;7.652;2023-02-21T13:57:41;13.20;99.90
3752;DHT22;50827;47.014;7.652;2023-02-21T14:13:36;13.40;99.90
3752;DHT22;50827;47.014;7.652;2023-02-21T14:19:08;13.50;99.90
3752;DHT22;50827;47.014;7.652;2023-02-21T14:21:45;13.50;99.90
3752;DHT22;50827;47.014;7.652;2023-02-21T14:24:15;13.60;99.90
3752;DHT22;50827;47.014;7.652;2023-02-21T14:26:49;13.60;99.90
3752;DHT22;50827;47.014;7.652;2023-02-21T14:37:21;13.60;99.90
3752;DHT22;50827;47.014;7.652;2023-02-21T14:39:54;13.60;99.90
3752;DHT22;50827;47.014;7.652;2023-02-21T14:51:42;13.60;99.90
3752;DHT22;50827;47.014;7.652;2023-02-21T14:54:40;13.60;99.90
3752;DHT22;50827;47.014;7.652;2023-02-21T15:03:11;13.50;99.90
3752;DHT22;50827;47.014;7.652;2023-02-21T15:08:23;13.40;99.90
3752;DHT22;50827;47.014;7.652;2023-02-21T15:10:53;13.40;99.90
3752;DHT22;50827;47.014;7.652;2023-02-21T15:13:30;13.40;99.90
3752;DHT22;50827;47.014;7.652;2023-02-21T15:16:06;13.40;99.90
3752;DHT22;50827;47.014;7.652;2023-02-21T15:18:36;13.30;99.90
3752;DHT22;50827;47.014;7.652;2023-02-21T15:23:40;13.30;99.90
3752;DHT22;50827;47.014;7.652;2023-02-21T15:26:39;13.30;99.90
3752;DHT22;50827;47.014;7.652;2023-02-21T15:29:14;13.30;99.90
3752;DHT22;50827;47.014;7.652;2023-02-21T15:36:57;13.30;99.90
3752;DHT22;50827;47.014;7.652;2023-02-21T15:39:33;13.30;99.90
3752;DHT22;50827;47.014;7.652;2023-02-21T15:42:03;13.40;99.90
3752;DHT22;50827;47.014;7.652;2023-02-21T15:47:14;13.40;99.90
3752;DHT22;50827;47.014;7.652;2023-02-21T15:50:30;13.40;99.90
3752;DHT22;50827;47.014;7.652;2023-02-21T15:52:35;13.40;99.90
3752;DHT22;50827;47.014;7.652;2023-02-21T15:57:40;13.40;99.90
3752;DHT22;50827;47.014;7.652;2023-02-21T16:00:22;13.40;99.90
3752;DHT22;50827;47.014;7.652;2023-02-21T16:02:50;13.40;99.90
3752;DHT22;50827;47.014;7.652;2023-02-21T16:05:42;13.40;99.90
3752;DHT22;50827;47.014;7.652;2023-02-21T16:08:13;13.30;99.90
3752;DHT22;50827;47.014;7.652;2023-02-21T16:10:40;13.30;99.90
3752;DHT22;50827;47.014;7.652;2023-02-21T16:13:08;13.30;99.90
3752;DHT22;50827;47.014;7.652;2023-02-21T16:15:36;13.40;99.90
3752;DHT22;50827;47.014;7.652;2023-02-21T16:18:09;13.30;99.90
3752;DHT22;50827;47.014;7.652;2023-02-21T16:20:41;13.30;99.90
3752;DHT22;50827;47.014;7.652;2023-02-21T16:23:30;13.20;99.90
3752;DHT22;50827;47.014;7.652;2023-02-21T16:28:42;13.00;99.90
3752;DHT22;50827;47.014;7.652;2023-02-21T16:31:14;13.00;99.90
3752;DHT22;50827;47.014;7.652;2023-02-21T16:33:42;12.90;99.90
3752;DHT22;50827;47.014;7.652;2023-02-21T16:36:25;12.70;99.90
3752;DHT22;50827;47.014;7.652;2023-02-21T16:38:54;12.50;99.90
3752;DHT22;50827;47.014;7.652;2023-02-21T16:41:21;12.40;99.90
3752;DHT22;50827;47.014;7.652;2023-02-21T16:43:49;12.40;99.90
3752;DHT22;50827;47.014;7.652;2023-02-21T16:46:24;12.40;99.90
3752;DHT22;50827;47.014;7.652;2023-02-21T16:48:55;12.30;99.90
3752;DHT22;50827;47.014;7.652;2023-02-21T16:51:22;12.30;99.90
3752;DHT22;50827;47.014;7.652;2023-02-21T16:53:49;12.30;99.90
3752;DHT22;50827;47.014;7.652;2023-02-21T16:56:16;12.20;99.90
3752;DHT22;50827;47.014;7.652;2023-02-21T16:58:46;12.10;99.90
3752;DHT22;50827;47.014;7.652;2023-02-21T17:01:23;12.10;99.90
3752;DHT22;50827;47.014;7.652;2023-02-21T17:03:50;12.10;99.90
3752;DHT22;50827;47.014;7.652;2023-02-21T17:06:21;12.00;99.90
3752;DHT22;50827;47.014;7.652;2023-02-21T17:08:49;12.00;99.90
3752;DHT22;50827;47.014;7.652;2023-02-21T17:11:15;11.90;99.90
3752;DHT22;50827;47.014;7.652;2023-02-21T17:13:42;11.80;99.90
3752;DHT22;50827;47.014;7.652;2023-02-21T17:16:10;11.80;99.90
3752;DHT22;50827;47.014;7.652;2023-02-21T17:18:37;11.70;99.90
3752;DHT22;50827;47.014;7.652;2023-02-21T17:21:04;11.50;99.90
3752;DHT22;50827;47.014;7.652;2023-02-21T17:23:31;11.40;99.90
3752;DHT22;50827;47.014;7.652;2023-02-21T17:25:57;11.40;99.90
3752;DHT22;50827;47.014;7.652;2023-02-21T17:28:24;11.40;99.90
3752;DHT22;50827;47.014;7.652;2023-02-21T17:30:51;11.30;99.90
3752;DHT22;50827;47.014;7.652;2023-02-21T17:33:18;11.30;99.90
3752;DHT22;50827;47.014;7.652;2023-02-21T17:35:44;11.30;99.90
3752;DHT22;50827;47.014;7.652;2023-02-21T17:38:11;11.20;99.90
3752;DHT22;50827;47.014;7.652;2023-02-21T17:40:38;11.20;99.90
3752;DHT22;50827;47.014;7.652;2023-02-21T17:43:04;11.10;99.90
3752;DHT22;50827;47.014;7.652;2023-02-21T17:45:34;11.10;99.90
3752;DHT22;50827;47.014;7.652;2023-02-21T17:48:04;11.00;99.90
3752;DHT22;50827;47.014;7.652;2023-02-21T17:50:31;11.00;99.90
3752;DHT22;50827;47.014;7.652;2023-02-21T17:52:58;10.90;99.90
3752;DHT22;50827;47.014;7.652;2023-02-21T17:55:25;10.90;99.90
3752;DHT22;50827;47.014;7.652;2023-02-21T17:57:54;10.80;99.90
3752;DHT22;50827;47.014;7.652;2023-02-21T18:00:24;10.70;99.90
3752;DHT22;50827;47.014;7.652;2023-02-21T18:02:52;10.70;99.90
3752;DHT22;50827;47.014;7.652;2023-02-21T18:05:19;10.60;99.90
3752;DHT22;50827;47.014;7.652;2023-02-21T18:07:50;10.70;99.90
3752;DHT22;50827;47.014;7.652;2023-02-21T18:10:19;10.60;99.90
3752;DHT22;50827;47.014;7.652;2023-02-21T18:12:46;10.50;99.90
3752;DHT22;50827;47.014;7.652;2023-02-21T18:15:18;10.50;99.90
3752;DHT22;50827;47.014;7.652;2023-02-21T18:17:45;10.50;99.90
3752;DHT22;50827;47.014;7.652;2023-02-21T18:20:11;10.40;99.90
3752;DHT22;50827;47.014;7.652;2023-02-21T18:22:40;10.40;99.90
3752;DHT22;50827;47.014;7.652;2023-02-21T18:25:07;10.40;99.90
3752;DHT22;50827;47.014;7.652;2023-02-21T18:27:35;10.30;99.90
3752;DHT22;50827;47.014;7.652;2023-02-21T18:30:02;10.30;99.90
3752;DHT22;50827;47.014;7.652;2023-02-21T18:32:29;10.20;99.90
3752;DHT22;50827;47.014;7.652;2023-02-21T18:34:59;10.20;99.90
3752;DHT22;50827;47.014;7.652;2023-02-21T18:37:26;10.20;99.90
3752;DHT22;50827;47.014;7.652;2023-02-21T18:39:54;10.20;99.90
3752;DHT22;50827;47.014;7.652;2023-02-21T18:42:21;10.10;99.90
3752;DHT22;50827;47.014;7.652;2023-02-21T18:44:50;10.20;99.90
3752;DHT22;50827;47.014;7.652;2023-02-21T18:47:17;10.10;99.90
3752;DHT22;50827;47.014;7.652;2023-02-21T18:49:46;10.00;99.90
3752;DHT22;50827;47.014;7.652;2023-02-21T18:52:14;10.00;99.90
3752;DHT22;50827;47.014;7.652;2023-02-21T18:54:48;9.90;99.90
3752;DHT22;50827;47.014;7.652;2023-02-21T18:57:17;9.80;99.90